Página principal
METAR-TAF:

METAR-TAF

Aeroportos :

Chignik, Alasca, Estados Unidos

latitude: 56-18-41N, longitude: 158-22-24W, altura: 6 m

Observação actual do tempo

O boletim foi feito há 30 minutos, às 05:36 UTC
Vento calmo
Temperatura 11°C
Humidade 87%
Pressão 1015 hPa
Visibilidade: 16.1 km
Encobertoa uma altura de 400 ft

METAR: PAJC 250536Z AUTO 00000KT 10SM OVC004 11/09 A2998 RMK AO2 $

Hora: 22:06 (06:06 UTC)


TAF: em falta

Observações e previsões do tempo de mais de 4000 aeroportos (mensagens METAR e TAF).

As estações disponíveis são os pontos amarelos e vermelhos sobre o mapa.

Mova o rato sobre o mapa para ver o nome da estação.

Depois clique no ponto para visualizar as observações e previsões meteorológicas.

Para alterar o mapa : clique nos botões verdes com uma cruz preta para aumentar o zoom; no botão verde com uma pitada de zoom; ou nas setas verdes para mapas adjacentes.


METAR-TAF: